createdAt,value
2023-02-24T00:02:06.135Z,8.81
2023-02-24T00:04:40.164Z,8.71
2023-02-24T00:07:10.544Z,8.79
2023-02-24T00:09:39.459Z,8.88
2023-02-24T00:12:15.068Z,8.89
2023-02-24T00:14:45.511Z,8.89
2023-02-24T00:17:17.121Z,8.84
2023-02-24T00:19:46.496Z,8.86
2023-02-24T00:22:13.794Z,8.87
2023-02-24T00:24:42.178Z,8.90
2023-02-24T00:27:12.244Z,8.95
2023-02-24T00:29:42.052Z,8.91
2023-02-24T00:32:13.375Z,8.95
2023-02-24T00:34:41.783Z,8.93
2023-02-24T00:37:09.190Z,8.92
2023-02-24T00:39:41.388Z,8.97
2023-02-24T00:42:09.012Z,8.82
2023-02-24T00:44:47.081Z,8.71
2023-02-24T00:47:17.076Z,8.84
2023-02-24T00:49:45.214Z,8.87
2023-02-24T00:52:20.711Z,8.89
2023-02-24T00:54:50.781Z,8.93
2023-02-24T00:57:20.556Z,8.95
2023-02-24T00:59:48.168Z,8.88
2023-02-24T01:02:16.121Z,8.77
2023-02-24T01:04:45.156Z,8.76
2023-02-24T01:07:13.085Z,8.71
2023-02-24T01:09:42.140Z,8.78
2023-02-24T01:12:38.673Z,8.89
2023-02-24T01:15:10.113Z,8.90
2023-02-24T01:17:38.061Z,8.95
2023-02-24T01:20:18.058Z,8.93
2023-02-24T01:22:54.738Z,8.95
2023-02-24T01:25:22.588Z,8.92
2023-02-24T01:27:49.859Z,8.93
2023-02-24T01:30:18.547Z,8.86
2023-02-24T01:32:47.109Z,8.86
2023-02-24T01:35:15.162Z,8.82
2023-02-24T01:37:43.249Z,8.97
2023-02-24T01:40:20.898Z,8.95
2023-02-24T01:42:49.546Z,8.94
2023-02-24T01:45:25.000Z,8.97
2023-02-24T01:48:00.265Z,9.08
2023-02-24T01:50:29.386Z,9.07
2023-02-24T01:53:04.569Z,9.00
2023-02-24T01:55:52.493Z,9.01
2023-02-24T01:58:26.810Z,8.99
2023-02-24T02:00:55.078Z,9.05
2023-02-24T02:03:38.089Z,8.99
2023-02-24T02:06:13.358Z,9.03
2023-02-24T02:08:43.398Z,9.13
2023-02-24T02:11:20.488Z,9.03
2023-02-24T02:13:52.456Z,9.12
2023-02-24T02:16:45.008Z,9.07
2023-02-24T02:19:55.720Z,9.13
2023-02-24T02:22:59.132Z,9.06
2023-02-24T02:25:56.996Z,9.14
2023-02-24T02:29:00.737Z,9.06
2023-02-24T02:31:51.044Z,9.15
2023-02-24T02:35:08.865Z,9.10
2023-02-24T02:38:03.339Z,9.03
2023-02-24T02:40:41.943Z,9.15
2023-02-24T02:43:33.365Z,9.03
2023-02-24T02:46:17.717Z,9.05
2023-02-24T02:48:59.599Z,9.16
2023-02-24T02:51:38.855Z,9.09
2023-02-24T02:55:18.486Z,9.05
2023-02-24T02:57:51.992Z,9.12
2023-02-24T03:00:29.387Z,9.01
2023-02-24T03:03:07.868Z,9.01
2023-02-24T03:05:47.131Z,9.13
2023-02-24T03:08:23.067Z,9.03
2023-02-24T03:10:54.211Z,9.08
2023-02-24T03:13:30.381Z,9.01
2023-02-24T03:16:01.883Z,8.96
2023-02-24T03:18:39.682Z,9.02
2023-02-24T03:21:20.102Z,9.03
2023-02-24T03:23:52.369Z,9.09
2023-02-24T03:26:49.725Z,9.10
2023-02-24T03:29:45.902Z,9.06
2023-02-24T03:32:26.891Z,9.09
2023-02-24T03:35:17.070Z,8.94
2023-02-24T03:37:47.497Z,8.97
2023-02-24T03:40:16.750Z,8.93
2023-02-24T03:42:54.700Z,8.95
2023-02-24T03:45:23.292Z,8.94
2023-02-24T03:47:54.182Z,8.82
2023-02-24T03:50:22.586Z,8.79
2023-02-24T03:53:17.725Z,8.68
2023-02-24T03:56:00.617Z,8.64
2023-02-24T03:59:23.772Z,8.74
2023-02-24T04:02:18.054Z,8.60
2023-02-24T04:05:21.982Z,8.45
2023-02-24T04:07:54.036Z,8.47
2023-02-24T04:10:59.471Z,8.38
2023-02-24T04:13:48.334Z,8.32
2023-02-24T04:17:03.882Z,8.43
2023-02-24T04:19:38.574Z,8.38
2023-02-24T04:22:14.502Z,8.35
2023-02-24T04:24:49.937Z,8.35
2023-02-24T04:27:18.988Z,8.32
2023-02-24T04:30:00.110Z,8.42
2023-02-24T04:32:30.799Z,8.39
2023-02-24T04:35:12.335Z,8.29
2023-02-24T04:37:46.029Z,8.20
2023-02-24T04:40:17.730Z,8.17
2023-02-24T04:42:49.219Z,8.32
2023-02-24T04:45:21.667Z,8.26
2023-02-24T04:47:51.383Z,8.14
2023-02-24T04:50:25.342Z,8.14
2023-02-24T04:52:56.478Z,8.15
2023-02-24T04:55:29.556Z,8.13
2023-02-24T04:57:58.377Z,8.12
2023-02-24T05:00:33.473Z,8.13
2023-02-24T05:03:05.660Z,8.15
2023-02-24T05:05:33.962Z,8.17
2023-02-24T05:08:08.471Z,8.15
2023-02-24T05:10:45.760Z,8.18
2023-02-24T05:13:29.154Z,8.14
2023-02-24T05:16:00.398Z,8.11
2023-02-24T05:18:30.078Z,8.11
2023-02-24T05:21:16.335Z,8.06
2023-02-24T05:23:47.242Z,8.08
2023-02-24T05:26:19.430Z,8.11
2023-02-24T05:28:50.041Z,8.15
2023-02-24T05:31:28.067Z,8.12
2023-02-24T05:33:59.268Z,8.15
2023-02-24T05:36:40.660Z,8.12
2023-02-24T05:39:14.672Z,8.13
2023-02-24T05:41:43.907Z,8.10
2023-02-24T05:44:16.006Z,8.07
2023-02-24T05:46:46.695Z,8.11
2023-02-24T05:49:23.982Z,8.00
2023-02-24T05:51:55.355Z,8.07
2023-02-24T05:54:30.275Z,8.06
2023-02-24T05:57:13.714Z,8.03
2023-02-24T05:59:42.380Z,8.05
2023-02-24T06:02:16.246Z,8.09
2023-02-24T06:04:51.324Z,8.05
2023-02-24T06:07:24.839Z,8.15
2023-02-24T06:09:58.328Z,8.10
2023-02-24T06:12:33.805Z,8.08
2023-02-24T06:15:07.633Z,8.18
2023-02-24T06:17:35.622Z,8.10
2023-02-24T06:20:13.227Z,8.17
2023-02-24T06:22:42.584Z,8.13
2023-02-24T06:25:12.076Z,8.16
2023-02-24T06:27:39.807Z,8.19
2023-02-24T06:30:10.402Z,8.25
2023-02-24T06:32:38.373Z,8.19
2023-02-24T06:35:06.283Z,8.16
2023-02-24T06:37:35.911Z,8.26
2023-02-24T06:40:09.079Z,8.32
2023-02-24T06:42:36.746Z,8.23
2023-02-24T06:45:06.481Z,8.37
2023-02-24T06:47:35.474Z,8.33
2023-02-24T06:50:06.913Z,8.38
2023-02-24T06:52:34.538Z,8.30
2023-02-24T06:55:04.824Z,8.41
2023-02-24T06:57:34.538Z,8.46
2023-02-24T07:00:17.081Z,8.49
2023-02-24T07:02:45.568Z,8.50
2023-02-24T07:05:14.829Z,8.49
2023-02-24T07:07:46.000Z,8.47
2023-02-24T07:10:13.696Z,8.42
2023-02-24T07:12:41.380Z,8.64
2023-02-24T07:15:09.841Z,8.56
2023-02-24T07:17:37.399Z,8.51
2023-02-24T07:20:12.368Z,8.42
2023-02-24T07:22:39.899Z,8.48
2023-02-24T07:25:07.519Z,8.42
2023-02-24T07:27:36.759Z,8.33
2023-02-24T07:30:06.526Z,8.33
2023-02-24T07:32:34.253Z,8.42
2023-02-24T07:35:01.492Z,8.39
2023-02-24T07:37:31.744Z,8.36
2023-02-24T07:39:59.161Z,8.47
2023-02-24T07:42:29.666Z,8.41
2023-02-24T07:44:57.280Z,8.44
2023-02-24T07:47:25.272Z,8.41
2023-02-24T07:49:52.561Z,8.44
2023-02-24T07:52:20.104Z,8.52
2023-02-24T07:54:48.999Z,8.50
2023-02-24T07:57:19.065Z,8.61
2023-02-24T07:59:47.658Z,8.65
2023-02-24T08:02:16.805Z,8.83
2023-02-24T08:04:51.559Z,8.82
2023-02-24T08:07:25.217Z,8.85
2023-02-24T08:10:14.513Z,8.71
2023-02-24T08:12:43.124Z,8.85
2023-02-24T08:15:18.277Z,8.97
2023-02-24T08:17:47.682Z,9.02
2023-02-24T08:20:15.735Z,8.94
2023-02-24T08:22:52.297Z,8.99
2023-02-24T08:25:36.002Z,8.93
2023-02-24T08:28:11.682Z,8.81
2023-02-24T08:30:46.021Z,8.91
2023-02-24T08:33:22.189Z,9.04
2023-02-24T08:36:01.683Z,9.07
2023-02-24T08:38:42.170Z,9.12
2023-02-24T08:41:21.118Z,9.25
2023-02-24T08:43:49.779Z,9.42
2023-02-24T08:46:32.990Z,9.43
2023-02-24T08:49:01.272Z,9.51
2023-02-24T08:51:35.215Z,9.52
2023-02-24T08:54:11.402Z,9.46
2023-02-24T08:56:43.913Z,9.45
2023-02-24T08:59:29.447Z,9.49
2023-02-24T09:02:18.044Z,9.53
2023-02-24T09:04:54.787Z,9.47
2023-02-24T09:07:28.392Z,9.45
2023-02-24T09:09:56.775Z,9.39
2023-02-24T09:12:29.206Z,9.35
2023-02-24T09:15:07.588Z,9.21
2023-02-24T09:17:45.053Z,9.20
2023-02-24T09:20:36.379Z,9.29
2023-02-24T09:23:05.897Z,9.16
2023-02-24T09:25:49.804Z,9.17
2023-02-24T09:28:29.326Z,9.21
2023-02-24T09:31:05.016Z,9.29
2023-02-24T09:33:42.191Z,9.29
2023-02-24T09:36:20.811Z,9.42
2023-02-24T09:39:02.207Z,9.58
2023-02-24T09:42:08.266Z,9.71
2023-02-24T09:44:49.216Z,9.89
2023-02-24T09:47:57.387Z,10.01
2023-02-24T09:51:04.511Z,10.33
2023-02-24T09:53:49.536Z,10.36
2023-02-24T09:56:44.113Z,10.66
2023-02-24T09:59:51.133Z,10.90
2023-02-24T10:02:27.499Z,11.31
2023-02-24T10:05:38.617Z,11.99
2023-02-24T10:08:25.500Z,11.57
2023-02-24T10:11:09.581Z,11.29
2023-02-24T10:13:48.619Z,11.76
2023-02-24T10:16:24.207Z,11.95
2023-02-24T10:19:23.667Z,11.86
2023-02-24T10:22:10.722Z,11.65
2023-02-24T10:25:10.923Z,11.59
2023-02-24T10:28:26.183Z,11.84
2023-02-24T10:31:25.707Z,12.02
2023-02-24T10:34:07.913Z,13.72
2023-02-24T10:36:36.241Z,12.69
2023-02-24T10:39:27.203Z,11.97
2023-02-24T10:42:17.711Z,11.65
2023-02-24T10:45:01.494Z,11.53
2023-02-24T10:47:31.770Z,11.69
2023-02-24T10:50:02.848Z,12.09
2023-02-24T10:52:57.311Z,12.86
2023-02-24T10:55:43.432Z,16.84
2023-02-24T10:58:44.918Z,24.33
2023-02-24T11:01:40.722Z,26.84
2023-02-24T11:04:33.679Z,28.65
2023-02-24T11:07:38.593Z,24.45
2023-02-24T11:10:26.275Z,20.29
2023-02-24T11:13:15.477Z,17.77
2023-02-24T11:16:09.610Z,16.34
2023-02-24T11:18:39.416Z,15.29
2023-02-24T11:21:12.371Z,14.64
2023-02-24T11:23:49.920Z,13.67
2023-02-24T11:26:23.822Z,13.46
2023-02-24T11:29:06.806Z,12.97
2023-02-24T11:32:15.522Z,12.77
2023-02-24T11:35:22.309Z,12.67
2023-02-24T11:38:34.698Z,12.43
2023-02-24T11:41:28.025Z,12.59
2023-02-24T11:44:21.898Z,12.61
2023-02-24T11:47:11.611Z,13.35
2023-02-24T11:49:55.562Z,13.59
2023-02-24T11:52:33.500Z,14.01
2023-02-24T11:55:05.484Z,14.17
2023-02-24T11:57:48.327Z,14.28
2023-02-24T12:00:26.872Z,14.74
2023-02-24T12:03:22.961Z,13.90
2023-02-24T12:05:57.224Z,13.30
2023-02-24T12:08:34.798Z,12.95
2023-02-24T12:11:30.484Z,12.47
2023-02-24T12:14:29.325Z,12.31
2023-02-24T12:17:32.181Z,11.93
2023-02-24T12:20:28.247Z,11.76
2023-02-24T12:23:15.937Z,11.62
2023-02-24T12:26:28.967Z,11.52
2023-02-24T12:29:18.777Z,11.47
2023-02-24T12:32:11.663Z,11.18
2023-02-24T12:35:36.215Z,11.13
2023-02-24T12:38:34.580Z,11.01
2023-02-24T12:41:47.928Z,10.93
2023-02-24T12:45:04.043Z,10.67
2023-02-24T12:47:34.325Z,10.57
2023-02-24T12:50:24.168Z,10.72
2023-02-24T12:53:03.348Z,10.57
2023-02-24T12:56:03.061Z,10.56
2023-02-24T12:58:39.496Z,10.69
2023-02-24T13:01:23.588Z,10.75
2023-02-24T13:04:06.646Z,10.90
2023-02-24T13:06:52.128Z,10.70
2023-02-24T13:09:42.007Z,10.63
2023-02-24T13:12:36.077Z,10.70
2023-02-24T13:15:19.813Z,10.70
2023-02-24T13:17:51.788Z,10.66
2023-02-24T13:20:31.867Z,10.61
2023-02-24T13:23:18.853Z,10.76
2023-02-24T13:25:55.827Z,10.58
2023-02-24T13:28:44.450Z,10.70
2023-02-24T13:31:15.064Z,10.56
2023-02-24T13:33:45.703Z,10.51
2023-02-24T13:36:23.735Z,10.63
2023-02-24T13:39:23.219Z,10.63
2023-02-24T13:42:01.275Z,10.65
2023-02-24T13:44:29.457Z,10.57
2023-02-24T13:47:51.754Z,10.39
2023-02-24T13:50:21.985Z,10.38
2023-02-24T13:53:09.439Z,10.36
2023-02-24T13:55:58.713Z,10.37
2023-02-24T13:58:46.196Z,10.27
2023-02-24T14:01:18.661Z,10.30
2023-02-24T14:04:24.538Z,10.43
2023-02-24T14:07:09.904Z,10.54
2023-02-24T14:09:46.583Z,10.75
2023-02-24T14:12:43.430Z,10.69
2023-02-24T14:15:23.392Z,10.69
2023-02-24T14:18:24.126Z,10.74
2023-02-24T14:20:54.408Z,10.55
2023-02-24T14:23:29.121Z,10.44
2023-02-24T14:26:01.913Z,10.51
2023-02-24T14:28:37.257Z,10.58
2023-02-24T14:31:14.543Z,10.47
2023-02-24T14:33:45.405Z,10.52
2023-02-24T14:36:27.998Z,10.44
2023-02-24T14:39:16.080Z,10.35
2023-02-24T14:41:45.325Z,10.25
2023-02-24T14:44:28.728Z,10.33
2023-02-24T14:47:06.566Z,10.59
2023-02-24T14:49:35.984Z,10.87
2023-02-24T14:52:24.713Z,11.65
2023-02-24T14:55:06.895Z,13.51
2023-02-24T14:58:17.939Z,14.81
2023-02-24T15:00:59.966Z,14.32
2023-02-24T15:03:37.740Z,14.31
2023-02-24T15:06:13.185Z,15.66
2023-02-24T15:08:52.576Z,17.26
2023-02-24T15:11:29.487Z,16.70
2023-02-24T15:14:03.751Z,15.04
2023-02-24T15:16:45.577Z,13.94
2023-02-24T15:19:31.665Z,13.27
2023-02-24T15:21:59.757Z,12.63
2023-02-24T15:24:37.703Z,12.31
2023-02-24T15:27:20.977Z,11.86
2023-02-24T15:30:26.833Z,11.45
2023-02-24T15:33:19.433Z,11.12
2023-02-24T15:35:52.100Z,11.01
2023-02-24T15:38:32.356Z,10.80
2023-02-24T15:41:02.736Z,10.71
2023-02-24T15:43:45.642Z,10.72
2023-02-24T15:46:31.918Z,10.66
2023-02-24T15:49:03.353Z,10.60
2023-02-24T15:51:47.174Z,10.39
2023-02-24T15:54:23.770Z,10.41
2023-02-24T15:56:51.257Z,10.33
2023-02-24T15:59:22.010Z,10.32
2023-02-24T16:01:52.009Z,10.37
2023-02-24T16:04:21.133Z,10.33
2023-02-24T16:06:57.132Z,10.21
2023-02-24T16:09:38.468Z,10.07
2023-02-24T16:12:21.373Z,10.10
2023-02-24T16:14:50.686Z,10.06
2023-02-24T16:17:40.927Z,10.00
2023-02-24T16:20:20.398Z,9.94
2023-02-24T16:22:47.847Z,9.88
2023-02-24T16:25:17.377Z,9.82
2023-02-24T16:27:45.007Z,9.86
2023-02-24T16:30:22.651Z,10.02
2023-02-24T16:32:50.677Z,9.97
2023-02-24T16:35:18.776Z,9.93
2023-02-24T16:37:48.259Z,9.93
2023-02-24T16:40:38.631Z,10.01
2023-02-24T16:43:06.055Z,9.91
2023-02-24T16:45:38.113Z,9.88
2023-02-24T16:48:14.784Z,9.81
2023-02-24T16:50:44.170Z,9.85
2023-02-24T16:53:22.817Z,9.70
2023-02-24T16:55:51.558Z,9.81
2023-02-24T16:58:19.735Z,9.76
2023-02-24T17:00:52.420Z,9.86
2023-02-24T17:03:22.608Z,9.63
2023-02-24T17:05:51.485Z,9.72
2023-02-24T17:08:19.470Z,9.71
2023-02-24T17:10:48.731Z,9.63
2023-02-24T17:13:20.368Z,9.36
2023-02-24T17:15:49.981Z,9.12
2023-02-24T17:18:17.355Z,8.87
2023-02-24T17:20:45.096Z,8.75
2023-02-24T17:23:12.569Z,8.66
2023-02-24T17:25:40.318Z,8.61
2023-02-24T17:28:08.193Z,8.72
2023-02-24T17:30:36.329Z,8.65
2023-02-24T17:33:04.157Z,8.57
2023-02-24T17:35:31.908Z,8.48
2023-02-24T17:37:59.534Z,8.49
2023-02-24T17:40:27.223Z,8.42
2023-02-24T17:42:54.745Z,8.34
2023-02-24T17:45:22.349Z,8.37
2023-02-24T17:47:49.906Z,8.29
2023-02-24T17:50:17.505Z,8.17
2023-02-24T17:52:44.938Z,8.23
2023-02-24T17:55:12.480Z,8.24
2023-02-24T17:57:40.026Z,8.25
2023-02-24T18:00:12.527Z,8.37
2023-02-24T18:02:40.474Z,8.40
2023-02-24T18:05:09.165Z,8.50
2023-02-24T18:07:37.255Z,8.44
2023-02-24T18:10:06.394Z,8.46
2023-02-24T18:12:33.708Z,8.53
2023-02-24T18:15:08.640Z,8.48
2023-02-24T18:17:38.056Z,8.53
2023-02-24T18:20:07.831Z,8.59
2023-02-24T18:22:35.893Z,8.59
2023-02-24T18:25:04.047Z,8.64
2023-02-24T18:27:31.419Z,8.68
2023-02-24T18:29:59.092Z,8.60
2023-02-24T18:32:26.670Z,8.62
2023-02-24T18:34:54.818Z,8.54
2023-02-24T18:37:22.372Z,8.57
2023-02-24T18:39:53.015Z,8.59
2023-02-24T18:42:20.449Z,8.67
2023-02-24T18:44:48.168Z,8.65
2023-02-24T18:47:15.569Z,8.69
2023-02-24T18:49:43.368Z,8.65
2023-02-24T18:52:11.901Z,8.66
2023-02-24T18:54:39.730Z,8.63
2023-02-24T18:57:07.175Z,8.60
2023-02-24T18:59:34.737Z,8.61
2023-02-24T19:02:02.346Z,8.60
2023-02-24T19:04:30.023Z,8.64
2023-02-24T19:06:57.512Z,8.58
2023-02-24T19:09:25.181Z,8.57
2023-02-24T19:11:54.262Z,8.60
2023-02-24T19:14:22.636Z,8.58
2023-02-24T19:16:50.148Z,8.56
2023-02-24T19:19:17.875Z,8.55
2023-02-24T19:21:45.691Z,8.46
2023-02-24T19:24:14.276Z,8.50
2023-02-24T19:26:43.957Z,8.49
2023-02-24T19:29:12.502Z,8.51
2023-02-24T19:31:40.680Z,8.49
2023-02-24T19:34:13.794Z,8.50
2023-02-24T19:36:43.907Z,8.49
2023-02-24T19:39:15.264Z,8.56
2023-02-24T19:41:43.590Z,8.50
2023-02-24T19:44:11.879Z,8.52
2023-02-24T19:46:40.666Z,8.42
2023-02-24T19:49:08.455Z,8.52
2023-02-24T19:51:36.104Z,8.44
2023-02-24T19:54:06.086Z,8.42
2023-02-24T19:56:36.789Z,8.44
2023-02-24T19:59:08.156Z,8.48
2023-02-24T20:01:35.732Z,8.53
2023-02-24T20:04:04.747Z,8.49
2023-02-24T20:06:38.928Z,8.47
2023-02-24T20:09:16.857Z,8.50
2023-02-24T20:11:45.814Z,8.50
2023-02-24T20:14:15.477Z,8.60
2023-02-24T20:16:44.206Z,8.50
2023-02-24T20:19:13.822Z,8.52
2023-02-24T20:21:41.865Z,8.47
2023-02-24T20:24:15.605Z,8.45
2023-02-24T20:26:47.316Z,8.55
2023-02-24T20:29:17.412Z,8.58
2023-02-24T20:31:46.486Z,8.70
2023-02-24T20:34:16.781Z,8.78
2023-02-24T20:36:44.741Z,8.81
2023-02-24T20:39:12.554Z,8.86
2023-02-24T20:41:40.674Z,8.90
2023-02-24T20:44:08.678Z,8.87
2023-02-24T20:46:37.411Z,8.83
2023-02-24T20:49:08.809Z,8.78
2023-02-24T20:51:37.620Z,8.86
2023-02-24T20:54:06.520Z,8.85
2023-02-24T20:56:37.038Z,8.72
2023-02-24T20:59:22.089Z,8.82
2023-02-24T21:01:50.931Z,8.68
2023-02-24T21:04:21.484Z,8.70
2023-02-24T21:06:51.546Z,8.68
2023-02-24T21:09:19.404Z,8.61
2023-02-24T21:11:46.923Z,8.86
2023-02-24T21:14:16.900Z,8.64
2023-02-24T21:16:46.309Z,8.51
2023-02-24T21:19:14.289Z,8.61
2023-02-24T21:21:41.589Z,8.55
2023-02-24T21:24:09.786Z,8.56
2023-02-24T21:26:37.112Z,8.50
2023-02-24T21:29:04.807Z,8.49
2023-02-24T21:31:32.387Z,8.54
2023-02-24T21:34:00.210Z,8.51
2023-02-24T21:36:28.174Z,8.56
2023-02-24T21:38:55.815Z,8.55
2023-02-24T21:41:24.098Z,8.60
2023-02-24T21:43:55.369Z,8.65
2023-02-24T21:46:28.101Z,8.66
2023-02-24T21:48:58.712Z,8.57
2023-02-24T21:51:27.897Z,8.61
2023-02-24T21:53:57.175Z,8.66
2023-02-24T21:56:28.433Z,8.66
2023-02-24T21:59:09.111Z,8.74
2023-02-24T22:01:40.546Z,8.80
2023-02-24T22:04:14.762Z,8.84
2023-02-24T22:06:44.774Z,8.81
2023-02-24T22:09:20.505Z,8.88
2023-02-24T22:11:49.867Z,8.92
2023-02-24T22:14:18.034Z,8.73
2023-02-24T22:16:45.785Z,8.60
2023-02-24T22:19:13.890Z,8.56
2023-02-24T22:21:42.664Z,8.59
2023-02-24T22:24:14.997Z,8.57
2023-02-24T22:26:43.230Z,8.60
2023-02-24T22:29:11.597Z,8.61
2023-02-24T22:31:40.118Z,8.53
2023-02-24T22:34:08.956Z,8.59
2023-02-24T22:36:37.862Z,8.48
2023-02-24T22:39:06.837Z,8.41
2023-02-24T22:41:35.732Z,8.57
2023-02-24T22:44:06.136Z,8.49
2023-02-24T22:46:38.000Z,8.44
2023-02-24T22:49:06.736Z,8.40
2023-02-24T22:51:34.336Z,8.35
2023-02-24T22:54:02.466Z,8.33
2023-02-24T22:56:30.879Z,8.31
2023-02-24T22:58:59.352Z,8.32
2023-02-24T23:01:37.372Z,8.28
2023-02-24T23:04:14.918Z,8.32
2023-02-24T23:06:43.318Z,8.28
2023-02-24T23:09:11.237Z,8.29
2023-02-24T23:11:41.620Z,8.30
2023-02-24T23:14:14.094Z,8.39
2023-02-24T23:16:44.928Z,8.50
2023-02-24T23:19:19.844Z,8.46
2023-02-24T23:21:52.466Z,8.44
2023-02-24T23:24:22.074Z,8.50
2023-02-24T23:26:54.156Z,8.55
2023-02-24T23:29:24.572Z,8.51
2023-02-24T23:31:53.090Z,8.41
2023-02-24T23:34:21.166Z,8.49
2023-02-24T23:36:50.748Z,8.44
2023-02-24T23:39:23.861Z,8.37
2023-02-24T23:41:57.020Z,8.41
2023-02-24T23:44:25.625Z,8.43
2023-02-24T23:46:52.859Z,8.30
2023-02-24T23:49:20.657Z,8.37
2023-02-24T23:51:49.085Z,8.45
2023-02-24T23:54:18.517Z,8.49
2023-02-24T23:56:46.705Z,8.53
2023-02-24T23:59:15.284Z,8.50
